createdAt,value
2022-08-10T00:01:39.886Z,90.80
2022-08-10T00:04:09.173Z,90.80
2022-08-10T00:06:47.057Z,90.80
2022-08-10T00:09:15.456Z,91.10
2022-08-10T00:11:43.345Z,90.90
2022-08-10T00:14:11.242Z,90.90
2022-08-10T00:16:39.214Z,90.80
2022-08-10T00:19:07.084Z,90.80
2022-08-10T00:21:36.392Z,90.90
2022-08-10T00:24:04.739Z,91.00
2022-08-10T00:27:52.801Z,91.00
2022-08-10T00:29:20.714Z,91.00
2022-08-10T00:31:58.168Z,91.00
2022-08-10T00:34:27.655Z,91.10
2022-08-10T00:36:56.932Z,91.10
2022-08-10T00:39:25.131Z,91.20
2022-08-10T00:42:06.398Z,91.20
2022-08-10T00:44:35.268Z,91.30
2022-08-10T00:47:03.234Z,91.30
2022-08-10T00:49:31.167Z,91.40
2022-08-10T00:52:00.746Z,91.40
2022-08-10T00:54:30.366Z,91.50
2022-08-10T00:57:15.696Z,91.40
2022-08-10T00:59:59.021Z,91.40
2022-08-10T01:02:29.874Z,91.70
2022-08-10T01:05:01.728Z,91.60
2022-08-10T01:08:06.616Z,91.50
2022-08-10T01:10:43.045Z,91.80
2022-08-10T01:13:17.717Z,91.70
2022-08-10T01:15:54.926Z,91.60
2022-08-10T01:18:35.881Z,91.70
2022-08-10T01:21:30.223Z,91.70
2022-08-10T01:24:29.630Z,91.60
2022-08-10T01:27:16.633Z,91.70
2022-08-10T01:30:05.326Z,91.60
2022-08-10T01:32:41.641Z,91.60
2022-08-10T01:35:16.293Z,91.60
2022-08-10T01:37:52.298Z,91.50
2022-08-10T01:40:25.642Z,91.50
2022-08-10T01:42:55.463Z,91.50
2022-08-10T01:45:45.685Z,91.80
2022-08-10T01:48:31.382Z,91.60
2022-08-10T01:51:08.690Z,91.60
2022-08-10T01:53:43.916Z,91.60
2022-08-10T01:56:15.098Z,91.60
2022-08-10T01:58:45.364Z,91.60
2022-08-10T02:01:18.206Z,91.60
2022-08-10T02:04:04.184Z,91.60
2022-08-10T02:06:35.099Z,91.70
2022-08-10T02:09:06.478Z,91.70
2022-08-10T02:12:07.848Z,91.70
2022-08-10T02:14:25.679Z,91.70
2022-08-10T02:17:04.850Z,91.80
2022-08-10T02:19:36.287Z,91.90
2022-08-10T02:22:36.729Z,91.80
2022-08-10T02:24:55.503Z,91.90
2022-08-10T02:27:25.879Z,91.90
2022-08-10T02:29:56.585Z,92.00
2022-08-10T02:32:38.318Z,92.10
2022-08-10T02:35:18.666Z,92.10
2022-08-10T02:37:52.207Z,92.20
2022-08-10T02:45:01.341Z,92.20
2022-08-10T02:45:20.719Z,92.20
2022-08-10T02:46:11.649Z,92.30
2022-08-10T02:48:44.450Z,92.20
2022-08-10T02:51:17.996Z,92.30
2022-08-10T02:53:55.825Z,92.60
2022-08-10T02:56:28.030Z,92.40
2022-08-10T02:59:00.447Z,92.40
2022-08-10T03:01:37.682Z,92.40
2022-08-10T03:04:10.041Z,92.40
2022-08-10T03:06:43.591Z,92.40
2022-08-10T03:09:15.323Z,92.40
2022-08-10T03:12:35.281Z,92.60
2022-08-10T03:14:35.172Z,92.40
2022-08-10T03:17:04.177Z,92.50
2022-08-10T03:20:35.737Z,92.60
2022-08-10T03:22:24.739Z,92.70
2022-08-10T03:24:54.186Z,92.70
2022-08-10T03:27:23.450Z,92.80
2022-08-10T03:30:28.391Z,92.70
2022-08-10T03:32:40.626Z,92.90
2022-08-10T03:35:10.832Z,92.90
2022-08-10T03:37:38.744Z,92.80
2022-08-10T03:40:08.480Z,92.80
2022-08-10T03:42:39.175Z,92.80
2022-08-10T03:45:08.924Z,93.00
2022-08-10T03:47:39.094Z,93.00
2022-08-10T03:50:45.164Z,93.30
2022-08-10T03:52:59.456Z,93.80
2022-08-10T03:56:27.067Z,93.70
2022-08-10T03:58:16.594Z,93.60
2022-08-10T04:00:45.086Z,94.10
2022-08-10T04:03:13.661Z,94.10
2022-08-10T04:05:43.096Z,94.20
2022-08-10T04:08:11.112Z,94.20
2022-08-10T04:10:39.093Z,94.30
2022-08-10T04:13:07.149Z,94.40
2022-08-10T04:15:35.360Z,94.50
2022-08-10T04:18:06.405Z,94.60
2022-08-10T04:20:39.055Z,94.60
2022-08-10T04:23:13.137Z,94.60
2022-08-10T04:25:41.860Z,94.40
2022-08-10T04:28:12.781Z,94.40
2022-08-10T04:30:42.581Z,94.80
2022-08-10T04:33:13.098Z,95.30
2022-08-10T04:35:41.629Z,95.50
2022-08-10T04:38:12.352Z,95.50
2022-08-10T04:40:40.386Z,95.30
2022-08-10T04:43:12.754Z,95.50
2022-08-10T04:45:48.262Z,95.60
2022-08-10T04:48:41.015Z,96.10
2022-08-10T04:51:11.132Z,95.90
2022-08-10T04:54:05.809Z,95.90
2022-08-10T04:56:35.900Z,96.20
2022-08-10T04:59:05.005Z,96.20
2022-08-10T05:02:22.714Z,96.20
2022-08-10T05:04:34.067Z,96.10
2022-08-10T05:07:07.776Z,95.90
2022-08-10T05:10:03.908Z,95.80
2022-08-10T05:12:25.181Z,95.80
2022-08-10T05:14:53.911Z,95.70
2022-08-10T05:17:22.919Z,95.80
2022-08-10T05:20:03.000Z,96.00
2022-08-10T05:22:35.066Z,95.80
2022-08-10T05:25:05.242Z,95.50
2022-08-10T05:27:33.520Z,95.70
2022-08-10T05:30:03.409Z,95.70
2022-08-10T05:32:32.277Z,95.90
2022-08-10T05:35:00.389Z,95.90
2022-08-10T05:38:09.919Z,96.20
2022-08-10T05:40:19.952Z,95.70
2022-08-10T05:42:47.823Z,95.80
2022-08-10T05:45:21.510Z,95.80
2022-08-10T05:48:55.763Z,95.60
2022-08-10T05:50:45.428Z,95.40
2022-08-10T05:53:59.155Z,95.50
2022-08-10T05:56:04.062Z,95.40
2022-08-10T05:58:31.984Z,95.70
2022-08-10T06:01:02.942Z,95.30
2022-08-10T06:03:34.917Z,95.40
2022-08-10T06:06:07.274Z,95.80
2022-08-10T06:08:36.957Z,95.50
2022-08-10T06:12:25.987Z,95.50
2022-08-10T06:14:16.078Z,95.70
2022-08-10T06:16:45.096Z,95.80
2022-08-10T06:19:15.092Z,95.80
2022-08-10T06:21:53.615Z,96.00
2022-08-10T06:24:30.700Z,96.40
2022-08-10T06:27:00.939Z,96.20
2022-08-10T06:29:32.579Z,96.20
2022-08-10T06:32:01.980Z,96.50
2022-08-10T06:34:32.899Z,96.40
2022-08-10T06:37:04.105Z,96.30
2022-08-10T06:39:34.580Z,96.30
2022-08-10T06:42:16.370Z,96.60
2022-08-10T06:44:52.292Z,96.80
2022-08-10T06:47:23.619Z,96.80
2022-08-10T06:49:59.980Z,96.90
2022-08-10T06:52:33.823Z,97.70
2022-08-10T06:55:05.135Z,97.80
2022-08-10T06:57:36.691Z,97.70
2022-08-10T07:00:06.781Z,98.10
2022-08-10T07:02:42.314Z,98.10
2022-08-10T07:05:14.004Z,98.00
2022-08-10T07:07:45.258Z,97.80
2022-08-10T07:10:17.459Z,97.80
2022-08-10T07:12:48.790Z,97.90
2022-08-10T07:15:18.452Z,97.50
2022-08-10T07:17:48.325Z,97.70
2022-08-10T07:20:19.343Z,97.70
2022-08-10T07:23:08.153Z,97.40
2022-08-10T07:25:40.294Z,97.40
2022-08-10T07:28:10.305Z,97.20
2022-08-10T07:30:40.606Z,96.80
2022-08-10T07:33:10.675Z,96.70
2022-08-10T07:35:42.526Z,96.70
2022-08-10T07:38:14.233Z,96.90
2022-08-10T07:40:43.335Z,96.90
2022-08-10T07:43:14.624Z,97.20
2022-08-10T07:45:42.921Z,97.20
2022-08-10T07:48:15.873Z,96.90
2022-08-10T07:50:46.133Z,96.60
2022-08-10T07:53:18.296Z,96.40
2022-08-10T07:56:05.055Z,96.30
2022-08-10T07:58:40.358Z,96.30
2022-08-10T08:01:18.979Z,96.20
2022-08-10T08:04:05.769Z,95.90
2022-08-10T08:06:38.243Z,95.90
2022-08-10T08:09:06.823Z,95.70
2022-08-10T08:11:36.543Z,95.60
2022-08-10T08:14:07.328Z,95.50
2022-08-10T08:16:37.224Z,95.60
2022-08-10T08:24:08.955Z,95.30
2022-08-10T08:24:44.803Z,95.20
2022-08-10T08:27:16.115Z,94.80
2022-08-10T08:29:47.066Z,94.70
2022-08-10T08:32:18.885Z,94.80
2022-08-10T08:34:48.170Z,94.60
2022-08-10T08:37:18.871Z,94.20
2022-08-10T08:40:09.897Z,94.10
2022-08-10T08:43:05.958Z,93.80
2022-08-10T08:46:00.318Z,93.50
2022-08-10T08:48:57.420Z,93.00
2022-08-10T08:52:09.871Z,92.50
2022-08-10T08:54:37.903Z,92.60
2022-08-10T08:57:46.348Z,92.30
2022-08-10T09:00:13.292Z,92.40
2022-08-10T09:03:11.448Z,91.90
2022-08-10T09:05:59.614Z,91.70
2022-08-10T09:08:47.312Z,91.10
2022-08-10T09:11:29.351Z,90.80
2022-08-10T09:14:05.580Z,90.80
2022-08-10T09:16:44.357Z,90.40
2022-08-10T09:19:36.540Z,90.90
2022-08-10T09:22:18.810Z,91.30
2022-08-10T09:24:53.046Z,91.80
2022-08-10T09:27:23.757Z,91.60
2022-08-10T09:29:55.797Z,90.80
2022-08-10T09:35:39.213Z,90.90
2022-08-10T09:36:22.955Z,90.50
2022-08-10T09:38:34.515Z,90.70
2022-08-10T09:41:17.164Z,90.40
2022-08-10T09:44:01.507Z,90.60
2022-08-10T09:46:48.135Z,90.30
2022-08-10T09:49:53.010Z,88.10
2022-08-10T09:52:22.072Z,86.30
2022-08-10T09:55:02.627Z,87.20
2022-08-10T09:57:43.085Z,87.40
2022-08-10T10:00:15.940Z,87.00
2022-08-10T10:02:58.807Z,87.70
2022-08-10T10:05:51.781Z,87.50
2022-08-10T10:08:42.821Z,84.40
2022-08-10T10:11:17.823Z,80.00
2022-08-10T10:14:03.095Z,80.30
2022-08-10T10:16:53.830Z,77.70
2022-08-10T10:19:53.635Z,78.10
2022-08-10T10:22:42.634Z,78.60
2022-08-10T10:25:21.486Z,78.50
2022-08-10T10:28:10.914Z,78.60
2022-08-10T10:30:49.023Z,77.90
2022-08-10T10:33:31.763Z,77.50
2022-08-10T10:36:02.022Z,77.10
2022-08-10T10:38:35.804Z,76.70
2022-08-10T10:41:23.948Z,75.80
2022-08-10T10:44:06.290Z,74.60
2022-08-10T10:46:53.014Z,75.30
2022-08-10T10:49:32.212Z,75.00
2022-08-10T10:52:11.079Z,75.10
2022-08-10T10:54:45.979Z,74.10
2022-08-10T10:57:23.780Z,74.20
2022-08-10T11:00:13.504Z,72.60
2022-08-10T11:02:54.873Z,72.30
2022-08-10T11:05:32.007Z,71.20
2022-08-10T11:08:04.320Z,71.20
2022-08-10T11:10:46.194Z,70.20
2022-08-10T11:14:26.222Z,69.70
2022-08-10T11:16:24.578Z,70.10
2022-08-10T11:19:04.546Z,69.30
2022-08-10T11:21:44.161Z,68.70
2022-08-10T11:24:47.038Z,69.10
2022-08-10T11:27:21.941Z,67.70
2022-08-10T11:30:03.840Z,66.90
2022-08-10T11:32:38.314Z,67.20
2022-08-10T11:35:21.558Z,67.00
2022-08-10T11:38:34.159Z,66.70
2022-08-10T11:40:54.164Z,66.70
2022-08-10T11:43:27.143Z,66.40
2022-08-10T11:46:28.015Z,67.30
2022-08-10T11:49:07.173Z,67.40
2022-08-10T11:51:44.319Z,67.40
2022-08-10T11:54:22.426Z,67.30
2022-08-10T11:56:57.217Z,66.70
2022-08-10T11:59:50.712Z,65.80
2022-08-10T12:02:32.322Z,65.80
2022-08-10T12:05:04.148Z,65.50
2022-08-10T12:10:01.949Z,65.20
2022-08-10T12:10:24.692Z,64.90
2022-08-10T12:12:59.951Z,64.00
2022-08-10T12:15:35.602Z,64.10
2022-08-10T12:18:13.548Z,63.50
2022-08-10T12:20:44.478Z,64.10
2022-08-10T12:23:18.213Z,63.00
2022-08-10T12:25:57.975Z,64.50
2022-08-10T12:28:49.373Z,63.30
2022-08-10T12:31:23.555Z,63.60
2022-08-10T12:34:04.501Z,63.40
2022-08-10T12:36:38.939Z,62.30
2022-08-10T12:39:13.267Z,61.70
2022-08-10T12:41:47.103Z,61.00
2022-08-10T12:44:21.041Z,60.30
2022-08-10T12:46:58.269Z,60.20
2022-08-10T12:49:35.210Z,61.10
2022-08-10T12:52:12.212Z,61.60
2022-08-10T12:54:42.287Z,61.20
2022-08-10T12:57:13.259Z,60.30
2022-08-10T12:59:45.828Z,61.10
2022-08-10T13:02:21.399Z,60.00
2022-08-10T13:04:53.144Z,60.00
2022-08-10T13:08:25.578Z,60.10
2022-08-10T13:10:17.308Z,61.40
2022-08-10T13:12:49.096Z,61.10
2022-08-10T13:15:25.419Z,61.40
2022-08-10T13:18:18.265Z,60.00
2022-08-10T13:20:52.201Z,60.10
2022-08-10T13:23:24.524Z,60.10
2022-08-10T13:25:54.348Z,60.30
2022-08-10T13:28:37.065Z,60.50
2022-08-10T13:31:11.598Z,59.50
2022-08-10T13:34:39.593Z,59.60
2022-08-10T13:36:40.723Z,59.00
2022-08-10T13:39:09.489Z,59.00
2022-08-10T13:41:41.227Z,59.00
2022-08-10T13:44:13.156Z,59.40
2022-08-10T13:46:48.709Z,60.40
2022-08-10T13:49:18.390Z,61.10
2022-08-10T13:51:56.575Z,59.60
2022-08-10T13:54:28.751Z,60.10
2022-08-10T13:56:57.603Z,60.20
2022-08-10T14:00:33.120Z,60.40
2022-08-10T14:02:23.835Z,60.20
2022-08-10T14:04:53.316Z,60.20
2022-08-10T14:07:24.178Z,60.70
2022-08-10T14:09:54.258Z,61.00
2022-08-10T14:12:32.729Z,60.60
2022-08-10T14:15:03.323Z,60.10
2022-08-10T14:17:31.543Z,61.00
2022-08-10T14:20:03.491Z,60.30
2022-08-10T14:22:34.525Z,60.90
2022-08-10T14:25:07.707Z,61.40
2022-08-10T14:28:02.226Z,60.50
2022-08-10T14:30:29.636Z,59.90
2022-08-10T14:33:03.999Z,60.50
2022-08-10T14:36:18.939Z,60.70
2022-08-10T14:38:29.776Z,60.70
2022-08-10T14:41:00.562Z,61.60
2022-08-10T14:43:32.893Z,61.30
2022-08-10T14:46:05.853Z,61.60
2022-08-10T14:48:40.750Z,61.20
2022-08-10T14:51:10.631Z,61.70
2022-08-10T14:53:43.942Z,61.70
2022-08-10T14:56:15.714Z,61.20
2022-08-10T14:59:05.507Z,61.30
2022-08-10T15:02:01.014Z,61.20
2022-08-10T15:04:29.272Z,61.10
2022-08-10T15:07:01.157Z,61.60
2022-08-10T15:10:00.966Z,60.70
2022-08-10T15:12:32.795Z,61.20
2022-08-10T15:15:02.340Z,60.90
2022-08-10T15:17:34.719Z,60.40
2022-08-10T15:20:14.238Z,60.40
2022-08-10T15:22:50.337Z,60.10
2022-08-10T15:25:25.579Z,60.60
2022-08-10T15:27:57.804Z,61.10
2022-08-10T15:30:40.355Z,61.60
2022-08-10T15:33:57.931Z,60.40
2022-08-10T15:36:35.140Z,60.20
2022-08-10T15:39:17.212Z,61.00
2022-08-10T15:42:00.699Z,60.60
2022-08-10T15:44:38.905Z,60.10
2022-08-10T15:47:10.722Z,60.30
2022-08-10T15:49:45.918Z,59.70
2022-08-10T15:52:39.786Z,60.30
2022-08-10T15:55:41.187Z,59.80
2022-08-10T15:58:08.503Z,59.40
2022-08-10T16:00:41.117Z,59.90
2022-08-10T16:03:15.849Z,59.80
2022-08-10T16:06:01.876Z,60.40
2022-08-10T16:08:50.190Z,60.10
2022-08-10T16:11:37.691Z,60.10
2022-08-10T16:14:17.830Z,60.20
2022-08-10T16:16:51.527Z,60.30
2022-08-10T16:19:24.521Z,60.10
2022-08-10T16:22:02.846Z,60.30
2022-08-10T16:24:51.468Z,60.20
2022-08-10T16:27:21.732Z,60.90
2022-08-10T16:29:57.026Z,60.90
2022-08-10T16:32:26.389Z,60.00
2022-08-10T16:34:56.345Z,60.20
2022-08-10T16:37:57.254Z,60.40
2022-08-10T16:40:21.631Z,60.30
2022-08-10T16:42:50.661Z,60.80
2022-08-10T16:45:25.044Z,60.30
2022-08-10T16:47:54.624Z,60.90
2022-08-10T16:50:26.317Z,60.40
2022-08-10T16:52:57.194Z,60.70
2022-08-10T16:55:47.490Z,60.80
2022-08-10T16:58:16.674Z,61.40
2022-08-10T17:00:47.386Z,61.30
2022-08-10T17:03:22.455Z,60.80
2022-08-10T17:06:10.987Z,61.00
2022-08-10T17:08:48.276Z,61.00
2022-08-10T17:11:18.568Z,61.20
2022-08-10T17:13:46.991Z,61.40
2022-08-10T17:16:18.295Z,61.60
2022-08-10T17:18:48.343Z,61.30
2022-08-10T17:21:21.359Z,61.30
2022-08-10T17:23:53.107Z,61.60
2022-08-10T17:26:35.184Z,61.50
2022-08-10T17:29:08.770Z,61.60
2022-08-10T17:31:54.421Z,62.10
2022-08-10T17:34:29.454Z,61.90
2022-08-10T17:36:59.403Z,61.80
2022-08-10T17:39:32.278Z,61.80
2022-08-10T17:42:02.871Z,62.10
2022-08-10T17:44:36.999Z,62.20
2022-08-10T17:47:11.293Z,62.40
2022-08-10T17:49:40.884Z,62.50
2022-08-10T17:52:12.139Z,62.50
2022-08-10T17:54:44.235Z,62.70
2022-08-10T17:57:16.338Z,63.00
2022-08-10T17:59:44.581Z,62.70
2022-08-10T18:02:16.436Z,62.90
2022-08-10T18:04:50.584Z,63.30
2022-08-10T18:07:23.034Z,63.40
2022-08-10T18:09:54.332Z,63.70
2022-08-10T18:12:33.851Z,63.90
2022-08-10T18:15:12.459Z,64.00
2022-08-10T18:17:47.164Z,63.70
2022-08-10T18:20:20.027Z,63.70
2022-08-10T18:22:52.343Z,63.80
2022-08-10T18:25:23.957Z,63.90
2022-08-10T18:28:04.828Z,64.00
2022-08-10T18:30:36.849Z,64.20
2022-08-10T18:33:11.815Z,64.30
2022-08-10T18:35:40.677Z,64.40
2022-08-10T18:38:12.749Z,64.50
2022-08-10T18:40:44.948Z,64.50
2022-08-10T18:44:08.351Z,64.30
2022-08-10T18:46:07.761Z,64.40
2022-08-10T18:48:41.504Z,64.50
2022-08-10T18:51:12.539Z,64.60
2022-08-10T18:56:28.205Z,64.40
2022-08-10T18:59:09.513Z,64.60
2022-08-10T19:02:07.392Z,64.80
2022-08-10T19:04:51.163Z,64.60
2022-08-10T19:07:39.899Z,64.90
2022-08-10T19:10:15.471Z,65.00
2022-08-10T19:12:51.580Z,65.20
2022-08-10T19:15:27.050Z,65.30
2022-08-10T19:18:08.004Z,65.30
2022-08-10T19:20:44.768Z,65.50
2022-08-10T19:23:30.256Z,65.70
2022-08-10T19:26:41.464Z,65.80
2022-08-10T19:29:02.807Z,65.90
2022-08-10T19:31:44.016Z,66.00
2022-08-10T19:34:34.358Z,66.40
2022-08-10T19:37:15.350Z,66.30
2022-08-10T19:39:59.752Z,66.30
2022-08-10T19:42:35.133Z,66.20
2022-08-10T19:45:55.963Z,66.60
2022-08-10T19:48:13.002Z,66.70
2022-08-10T19:50:48.408Z,66.80
2022-08-10T19:53:27.381Z,66.90
2022-08-10T19:56:24.408Z,67.00
2022-08-10T19:58:59.481Z,67.10
2022-08-10T20:01:56.285Z,68.20
2022-08-10T20:04:28.899Z,67.80
2022-08-10T20:07:11.121Z,67.80
2022-08-10T20:09:47.141Z,68.60
2022-08-10T20:12:22.408Z,67.80
2022-08-10T20:14:59.370Z,68.40
2022-08-10T20:17:51.354Z,67.60
2022-08-10T20:20:30.669Z,68.40
2022-08-10T20:23:09.638Z,68.40
2022-08-10T20:25:44.982Z,68.20
2022-08-10T20:28:20.434Z,68.20
2022-08-10T20:30:52.975Z,68.00
2022-08-10T20:33:32.870Z,68.40
2022-08-10T20:36:06.933Z,68.70
2022-08-10T20:38:42.064Z,68.50
2022-08-10T20:41:22.734Z,68.40
2022-08-10T20:44:03.564Z,68.70
2022-08-10T20:46:49.913Z,68.90
2022-08-10T20:49:30.081Z,68.80
2022-08-10T20:52:02.705Z,68.80
2022-08-10T20:54:40.558Z,68.70
2022-08-10T20:57:57.441Z,69.50
2022-08-10T21:00:50.255Z,69.40
2022-08-10T21:03:40.697Z,69.80
2022-08-10T21:06:42.665Z,69.60
2022-08-10T21:09:21.785Z,69.90
2022-08-10T21:12:05.079Z,69.80
2022-08-10T21:14:43.152Z,70.00
2022-08-10T21:17:31.751Z,70.10
2022-08-10T21:20:12.823Z,70.20
2022-08-10T21:22:44.986Z,70.50
2022-08-10T21:25:16.330Z,70.90
2022-08-10T21:28:03.332Z,70.80
2022-08-10T21:30:53.235Z,70.90
2022-08-10T21:33:29.033Z,70.80
2022-08-10T21:36:07.164Z,71.00
2022-08-10T21:38:51.708Z,70.90
2022-08-10T21:41:57.408Z,71.10
2022-08-10T21:45:04.071Z,70.90
2022-08-10T21:48:07.024Z,70.90
2022-08-10T21:51:14.862Z,70.90
2022-08-10T21:54:25.997Z,71.20
2022-08-10T21:57:20.605Z,71.30
2022-08-10T22:00:12.123Z,71.50
2022-08-10T22:02:59.226Z,71.30
2022-08-10T22:05:49.104Z,71.60
2022-08-10T22:11:50.673Z,71.80
2022-08-10T22:14:43.924Z,72.00
2022-08-10T22:18:03.417Z,72.00
2022-08-10T22:20:44.749Z,72.40
2022-08-10T22:24:03.471Z,72.80
2022-08-10T22:27:47.290Z,72.50
2022-08-10T22:30:27.584Z,73.20
2022-08-10T22:31:25.783Z,71.70
2022-08-10T22:33:43.310Z,72.40
2022-08-10T22:36:53.698Z,72.70
2022-08-10T22:40:05.752Z,73.00
2022-08-10T22:43:10.510Z,72.90
2022-08-10T22:46:04.753Z,73.30
2022-08-10T22:48:57.776Z,73.30
2022-08-10T22:51:27.371Z,73.60
2022-08-10T22:54:30.704Z,73.70
2022-08-10T22:57:20.220Z,73.70
2022-08-10T22:59:49.154Z,74.00
2022-08-10T23:02:29.203Z,74.00
2022-08-10T23:05:02.958Z,74.20
2022-08-10T23:07:32.965Z,74.20
2022-08-10T23:10:03.567Z,74.40
2022-08-10T23:12:38.023Z,74.40
2022-08-10T23:15:33.106Z,74.60
2022-08-10T23:18:22.839Z,74.80
2022-08-10T23:20:54.574Z,74.60
2022-08-10T23:23:25.512Z,74.60
2022-08-10T23:25:57.164Z,75.00
2022-08-10T23:28:38.925Z,75.20
2022-08-10T23:31:59.046Z,75.30
2022-08-10T23:34:09.501Z,75.20
2022-08-10T23:36:40.277Z,75.20
2022-08-10T23:39:26.370Z,75.60
2022-08-10T23:42:07.045Z,75.80
2022-08-10T23:44:42.810Z,76.10
2022-08-10T23:47:12.478Z,76.10
2022-08-10T23:49:41.594Z,76.40
2022-08-10T23:52:15.594Z,76.20
2022-08-10T23:54:49.966Z,76.40
2022-08-10T23:57:21.198Z,77.00
2022-08-10T23:59:58.746Z,77.10
